createdAt,value
2023-01-01T00:00:31.319Z,86.1
2023-01-01T00:01:31.228Z,86.1
2023-01-01T00:02:38.873Z,86.01
2023-01-01T00:03:31.292Z,85.44
2023-01-01T00:04:30.954Z,85.53
2023-01-01T00:05:31.182Z,85.15
2023-01-01T00:06:30.888Z,84.96
2023-01-01T00:07:30.886Z,85.25
2023-01-01T00:08:30.923Z,85.53
2023-01-01T00:09:31.121Z,85.05
2023-01-01T00:10:31.172Z,84.39
2023-01-01T00:11:30.879Z,84.86
2023-01-01T00:12:31.088Z,84.1
2023-01-01T00:13:30.883Z,84.91
2023-01-01T00:14:31.070Z,84.86
2023-01-01T00:15:31.140Z,84.77
2023-01-01T00:16:30.873Z,84.77
2023-01-01T00:17:31.069Z,84.67
2023-01-01T00:18:30.803Z,84.58
2023-01-01T00:19:30.801Z,85.15
2023-01-01T00:20:37.309Z,84.58
2023-01-01T00:21:30.745Z,84.96
2023-01-01T00:22:56.772Z,84.48
2023-01-01T00:23:31.009Z,84.67
2023-01-01T00:24:30.993Z,84.58
2023-01-01T00:25:30.963Z,85.15
2023-01-01T00:26:37.232Z,85.25
2023-01-01T00:27:30.687Z,85.25
2023-01-01T00:28:30.932Z,85.25
2023-01-01T00:29:30.944Z,86.01
2023-01-01T00:30:30.911Z,85.82
2023-01-01T00:31:31.119Z,86.3
2023-01-01T00:32:30.965Z,86.58
2023-01-01T00:33:30.904Z,86.77
2023-01-01T00:34:30.613Z,86.96
2023-01-01T00:35:30.878Z,86.87
2023-01-01T00:36:30.850Z,86.77
2023-01-01T00:37:30.839Z,87.15
2023-01-01T00:38:30.571Z,86.77
2023-01-01T00:39:30.838Z,86.68
2023-01-01T00:40:30.816Z,87.06
2023-01-01T00:41:30.812Z,86.87
2023-01-01T00:42:30.546Z,86.87
2023-01-01T00:43:30.789Z,86.82
2023-01-01T00:44:30.774Z,87.4
2023-01-01T00:45:30.809Z,87.68
2023-01-01T00:46:30.784Z,87.54
2023-01-01T00:47:30.735Z,87.4
2023-01-01T00:48:30.737Z,87.59
2023-01-01T00:49:30.756Z,87.59
2023-01-01T00:50:30.741Z,87.87
2023-01-01T00:51:37.234Z,87.4
2023-01-01T00:52:30.442Z,88.16
2023-01-01T00:53:30.700Z,88.45
2023-01-01T00:54:30.675Z,88.54
2023-01-01T00:55:30.660Z,88.73
2023-01-01T00:56:30.663Z,88.92
2023-01-01T00:57:30.638Z,89.02
2023-01-01T00:58:30.636Z,89.21
2023-01-01T00:59:31.642Z,89.5
2023-01-01T01:00:30.372Z,89.31
2023-01-01T01:01:30.613Z,89.88
2023-01-01T01:02:30.655Z,89.88
2023-01-01T01:03:31.147Z,90.26
2023-01-01T01:04:30.599Z,90.26
2023-01-01T01:05:30.579Z,90.22
2023-01-01T01:06:30.557Z,90.45
2023-01-01T01:07:30.543Z,90.45
2023-01-01T01:08:33.720Z,90.17
2023-01-01T01:09:30.532Z,90.45
2023-01-01T01:10:30.504Z,90.64
2023-01-01T01:11:30.495Z,90.83
2023-01-01T01:12:30.487Z,90.64
2023-01-01T01:13:30.470Z,90.64
2023-01-01T01:14:30.969Z,90.64
2023-01-01T01:15:30.971Z,90.64
2023-01-01T01:16:30.828Z,90.73
2023-01-01T01:17:30.724Z,91.27
2023-01-01T01:18:30.667Z,91.55
2023-01-01T01:19:30.665Z,90.98
2023-01-01T01:20:30.899Z,90.98
2023-01-01T01:21:30.949Z,90.79
2023-01-01T01:22:31.771Z,90.79
2023-01-01T01:23:30.880Z,90.88
2023-01-01T01:24:30.904Z,91.46
2023-01-01T01:25:30.854Z,91.46
2023-01-01T01:26:30.846Z,90.69
2023-01-01T01:27:30.589Z,90.59
2023-01-01T01:28:30.819Z,90.41
2023-01-01T01:29:30.823Z,90.41
2023-01-01T01:30:30.734Z,90.22
2023-01-01T01:31:30.839Z,90.31
2023-01-01T01:32:30.783Z,89.83
2023-01-01T01:33:30.812Z,89.74
2023-01-01T01:34:31.051Z,89.83
2023-01-01T01:35:30.754Z,90.03
2023-01-01T01:36:30.781Z,89.83
2023-01-01T01:37:30.774Z,89.64
2023-01-01T01:38:30.462Z,89.64
2023-01-01T01:39:30.754Z,89.64
2023-01-01T01:40:30.699Z,89.83
2023-01-01T01:41:31.458Z,89.64
2023-01-01T01:42:30.417Z,89.45
2023-01-01T01:43:30.411Z,90.12
2023-01-01T01:44:30.657Z,90.03
2023-01-01T01:45:35.563Z,90.03
2023-01-01T01:46:30.509Z,90.12
2023-01-01T01:47:30.686Z,90.22
2023-01-01T01:48:30.623Z,90.12
2023-01-01T01:49:30.649Z,90.12
2023-01-01T01:50:30.589Z,90.12
2023-01-01T01:51:30.324Z,89.74
2023-01-01T01:52:30.311Z,89.83
2023-01-01T01:53:30.591Z,89.93
2023-01-01T01:54:30.304Z,89.83
2023-01-01T01:55:30.303Z,90.41
2023-01-01T01:56:30.555Z,90.31
2023-01-01T01:57:30.548Z,89.83
2023-01-01T01:58:30.508Z,89.93
2023-01-01T01:59:30.513Z,89.45
2023-01-01T02:00:30.502Z,90.03
2023-01-01T02:01:30.457Z,89.83
2023-01-01T02:02:30.601Z,89.83
2023-01-01T02:03:30.497Z,89.83
2023-01-01T02:04:30.459Z,90.12
2023-01-01T02:05:30.262Z,89.93
2023-01-01T02:06:30.436Z,89.83
2023-01-01T02:07:30.415Z,89.74
2023-01-01T02:08:30.156Z,89.17
2023-01-01T02:09:30.422Z,89.07
2023-01-01T02:10:30.142Z,89.07
2023-01-01T02:11:30.388Z,89.07
2023-01-01T02:12:30.382Z,88.88
2023-01-01T02:13:30.359Z,88.59
2023-01-01T02:14:30.342Z,88.4
2023-01-01T02:15:30.306Z,88.59
2023-01-01T02:16:30.333Z,87.74
2023-01-01T02:17:34.030Z,87.93
2023-01-01T02:18:30.303Z,88.02
2023-01-01T02:19:30.054Z,88.31
2023-01-01T02:20:30.024Z,88.21
2023-01-01T02:21:30.137Z,88.4
2023-01-01T02:22:30.000Z,88.4
2023-01-01T02:23:30.243Z,88.31
2023-01-01T02:24:30.243Z,88.4
2023-01-01T02:25:30.260Z,88.31
2023-01-01T02:26:30.215Z,88.5
2023-01-01T02:27:30.223Z,88.69
2023-01-01T02:28:30.197Z,88.12
2023-01-01T02:29:30.206Z,87.83
2023-01-01T02:30:30.384Z,87.16
2023-01-01T02:31:30.468Z,87.45
2023-01-01T02:32:30.616Z,87.35
2023-01-01T02:33:30.605Z,87.16
2023-01-01T02:34:30.588Z,86.59
2023-01-01T02:35:30.322Z,86.69
2023-01-01T02:36:30.576Z,86.3
2023-01-01T02:37:30.584Z,87.16
2023-01-01T02:38:30.557Z,86.21
2023-01-01T02:39:30.532Z,87.07
2023-01-01T02:40:30.536Z,86.69
2023-01-01T02:41:30.563Z,86.78
2023-01-01T02:42:30.499Z,86.88
2023-01-01T02:43:30.492Z,86.88
2023-01-01T02:44:30.491Z,87.45
2023-01-01T02:45:30.215Z,87.64
2023-01-01T02:46:30.494Z,87.16
2023-01-01T02:47:30.453Z,87.74
2023-01-01T02:48:30.458Z,87.45
2023-01-01T02:49:30.170Z,87.74
2023-01-01T02:50:30.437Z,87.74
2023-01-01T02:51:30.144Z,87.54
2023-01-01T02:52:30.144Z,87.64
2023-01-01T02:53:30.155Z,87.45
2023-01-01T02:54:30.118Z,87.45
2023-01-01T02:55:30.367Z,87.45
2023-01-01T02:56:30.367Z,87.26
2023-01-01T02:57:30.387Z,87.83
2023-01-01T02:58:30.329Z,87.54
2023-01-01T02:59:30.324Z,87.45
2023-01-01T03:00:30.532Z,87.93
2023-01-01T03:01:30.346Z,87.26
2023-01-01T03:02:30.519Z,87.54
2023-01-01T03:03:30.129Z,87.16
2023-01-01T03:04:30.273Z,87.16
2023-01-01T03:05:30.258Z,87.54
2023-01-01T03:06:30.255Z,87.35
2023-01-01T03:07:30.255Z,87.64
2023-01-01T03:08:30.220Z,88.02
2023-01-01T03:09:30.250Z,87.83
2023-01-01T03:10:30.205Z,87.93
2023-01-01T03:11:30.192Z,88.02
2023-01-01T03:12:29.922Z,88.02
2023-01-01T03:13:30.197Z,87.45
2023-01-01T03:14:30.173Z,87.64
2023-01-01T03:15:30.576Z,88.12
2023-01-01T03:16:30.393Z,87.93
2023-01-01T03:17:30.384Z,87.93
2023-01-01T03:18:30.109Z,88.12
2023-01-01T03:19:30.350Z,87.54
2023-01-01T03:20:30.084Z,87.83
2023-01-01T03:21:30.344Z,87.26
2023-01-01T03:22:30.318Z,87.16
2023-01-01T03:23:30.355Z,87.35
2023-01-01T03:24:30.301Z,87.45
2023-01-01T03:25:30.309Z,87.64
2023-01-01T03:26:30.023Z,88.12
2023-01-01T03:27:30.269Z,88.02
2023-01-01T03:28:30.299Z,88.4
2023-01-01T03:29:30.359Z,88.5
2023-01-01T03:30:30.269Z,88.4
2023-01-01T03:31:30.376Z,88.78
2023-01-01T03:32:29.954Z,88.12
2023-01-01T03:49:07.062Z,89.4
2023-01-01T03:50:05.470Z,89.31
2023-01-01T03:51:05.703Z,89.69
2023-01-01T03:52:05.432Z,89.5
2023-01-01T03:53:05.417Z,89.69
2023-01-01T03:54:05.741Z,89.98
2023-01-01T03:55:05.644Z,89.98
2023-01-01T03:56:05.633Z,89.89
2023-01-01T03:57:05.633Z,89.5
2023-01-01T03:58:05.630Z,89.69
2023-01-01T03:59:05.602Z,89.69
2023-01-01T04:00:05.584Z,89.5
2023-01-01T04:01:05.698Z,89.64
2023-01-01T04:02:05.594Z,89.12
2023-01-01T04:03:05.693Z,89.5
2023-01-01T04:04:05.574Z,89.36
2023-01-01T04:05:05.586Z,89.22
2023-01-01T04:06:05.539Z,89.12
2023-01-01T04:07:17.322Z,89.31
2023-01-01T04:08:05.237Z,89.6
2023-01-01T04:09:05.555Z,89.98
2023-01-01T04:10:05.204Z,90.26
2023-01-01T04:11:05.441Z,90.45
2023-01-01T04:12:05.180Z,90.17
2023-01-01T04:13:05.184Z,90.17
2023-01-01T04:14:05.428Z,90.45
2023-01-01T04:15:05.397Z,90.26
2023-01-01T04:16:05.456Z,90.26
2023-01-01T04:17:05.392Z,90.45
2023-01-01T04:18:05.117Z,90.93
2023-01-01T04:19:05.438Z,90.36
2023-01-01T04:20:05.359Z,90.93
2023-01-01T04:21:05.381Z,90.55
2023-01-01T04:22:05.378Z,90.55
2023-01-01T04:23:05.324Z,90.17
2023-01-01T04:24:05.054Z,90.08
2023-01-01T04:25:05.308Z,90.08
2023-01-01T04:26:05.020Z,89.89
2023-01-01T04:27:05.295Z,90.36
2023-01-01T04:28:05.260Z,90.08
2023-01-01T04:29:05.006Z,89.69
2023-01-01T04:30:05.023Z,89.89
2023-01-01T04:31:05.224Z,89.6
2023-01-01T04:32:05.204Z,89.4
2023-01-01T04:33:05.223Z,89.5
2023-01-01T04:34:05.212Z,89.5
2023-01-01T04:35:04.912Z,89.5
2023-01-01T04:36:04.911Z,89.6
2023-01-01T04:37:13.033Z,89.4
2023-01-01T04:38:04.889Z,90.17
2023-01-01T04:39:05.137Z,89.98
2023-01-01T04:40:04.881Z,89.6
2023-01-01T04:41:04.853Z,89.12
2023-01-01T04:42:04.840Z,89.4
2023-01-01T04:43:05.113Z,89.6
2023-01-01T04:44:05.109Z,89.4
2023-01-01T04:45:05.074Z,89.89
2023-01-01T04:46:04.964Z,89.98
2023-01-01T04:47:05.044Z,89.79
2023-01-01T04:48:05.032Z,89.6
2023-01-01T04:49:05.020Z,89.79
2023-01-01T04:50:04.756Z,89.89
2023-01-01T04:51:04.741Z,89.31
2023-01-01T04:52:04.982Z,89.6
2023-01-01T04:53:05.030Z,89.6
2023-01-01T04:54:05.001Z,89.69
2023-01-01T04:55:04.952Z,89.79
2023-01-01T04:56:04.939Z,89.79
2023-01-01T04:57:04.932Z,89.89
2023-01-01T04:58:04.916Z,89.98
2023-01-01T04:59:04.935Z,90.08
2023-01-01T05:00:04.947Z,89.89
2023-01-01T05:01:05.131Z,89.6
2023-01-01T05:02:05.254Z,89.89
2023-01-01T05:03:05.028Z,89.69
2023-01-01T05:04:04.923Z,90.45
2023-01-01T05:05:04.845Z,90.17
2023-01-01T05:06:04.834Z,90.55
2023-01-01T05:07:04.817Z,90.64
2023-01-01T05:08:04.796Z,90.84
2023-01-01T05:09:04.887Z,90.74
2023-01-01T05:10:04.559Z,90.93
2023-01-01T05:11:04.776Z,91.13
2023-01-01T05:12:04.495Z,91.13
2023-01-01T05:13:04.491Z,90.74
2023-01-01T05:14:04.484Z,91.41
2023-01-01T05:15:04.731Z,91.31
2023-01-01T05:16:05.801Z,91.88
2023-01-01T05:17:05.686Z,91.6
2023-01-01T05:18:05.393Z,91.88
2023-01-01T05:19:05.647Z,92.17
2023-01-01T05:20:05.376Z,92.27
2023-01-01T05:21:05.615Z,92.55
2023-01-01T05:22:12.525Z,91.98
2023-01-01T05:23:05.354Z,92.08
2023-01-01T05:24:05.611Z,92.17
2023-01-01T05:25:05.634Z,91.79
2023-01-01T05:26:05.558Z,92.55
2023-01-01T05:27:05.560Z,92.27
2023-01-01T05:28:05.542Z,92.74
2023-01-01T05:29:09.020Z,92.17
2023-01-01T05:30:05.260Z,92.08
2023-01-01T05:31:05.500Z,91.5
2023-01-01T05:32:05.699Z,92.17
2023-01-01T05:33:05.225Z,91.69
2023-01-01T05:35:05.459Z,91.98
2023-01-01T05:36:05.206Z,91.31
2023-01-01T05:37:05.429Z,91.22
2023-01-01T05:38:05.560Z,91.13
2023-01-01T05:39:05.577Z,91.5
2023-01-01T05:40:05.577Z,90.74
2023-01-01T05:41:05.571Z,90.74
2023-01-01T05:42:05.524Z,90.93
2023-01-01T05:43:05.516Z,90.64
2023-01-01T05:44:05.503Z,90.64
2023-01-01T05:45:05.488Z,90.55
2023-01-01T05:46:05.633Z,91.41
2023-01-01T05:47:05.202Z,91.03
2023-01-01T05:48:05.457Z,91.13
2023-01-01T05:49:05.183Z,91.22
2023-01-01T05:51:05.150Z,91.69
2023-01-01T05:52:05.405Z,91.98
2023-01-01T05:53:05.409Z,91.6
2023-01-01T05:54:05.385Z,91.69
2023-01-01T05:55:05.374Z,92.08
2023-01-01T05:56:05.367Z,92.17
2023-01-01T05:57:05.389Z,92.08
2023-01-01T05:58:05.333Z,91.79
2023-01-01T05:59:05.347Z,91.88
2023-01-01T06:00:05.301Z,91.5
2023-01-01T06:01:05.185Z,91.69
2023-01-01T06:02:05.579Z,91.6
2023-01-01T06:03:05.275Z,91.79
2023-01-01T06:04:05.378Z,91.69
2023-01-01T06:05:05.246Z,91.79
2023-01-01T06:06:05.261Z,92.08
2023-01-01T06:07:05.233Z,92.17
2023-01-01T06:08:05.225Z,91.88
2023-01-01T06:09:05.204Z,91.88
2023-01-01T06:10:05.203Z,91.98
2023-01-01T06:11:05.198Z,91.69
2023-01-01T06:12:05.184Z,91.88
2023-01-01T06:13:13.079Z,91.69
2023-01-01T06:14:04.903Z,91.69
2023-01-01T06:15:05.138Z,91.98
2023-01-01T06:16:05.134Z,92.08
2023-01-01T06:17:05.233Z,92.17
2023-01-01T06:18:05.117Z,91.69
2023-01-01T06:19:05.103Z,91.98
2023-01-01T06:20:05.119Z,91.5
2023-01-01T06:21:04.819Z,91.79
2023-01-01T06:22:05.071Z,91.79
2023-01-01T06:23:05.070Z,92.17
2023-01-01T06:24:05.052Z,91.79
2023-01-01T06:25:05.038Z,91.98
2023-01-01T06:26:05.017Z,92.46
2023-01-01T06:27:05.002Z,92.55
2023-01-01T06:28:04.737Z,91.98
2023-01-01T06:29:05.040Z,92.74
2023-01-01T06:30:05.050Z,91.98
2023-01-01T06:31:05.225Z,91.79
2023-01-01T06:32:04.950Z,91.98
2023-01-01T06:33:04.686Z,91.69
2023-01-01T06:34:04.927Z,91.69
2023-01-01T06:35:04.655Z,91.88
2023-01-01T06:36:04.955Z,91.98
2023-01-01T06:37:09.211Z,92.08
2023-01-01T06:38:04.880Z,91.69
2023-01-01T06:39:04.617Z,92.17
2023-01-01T06:40:04.879Z,92.27
2023-01-01T06:41:04.856Z,92.08
2023-01-01T06:42:04.834Z,91.98
2023-01-01T06:43:05.059Z,92.36
2023-01-01T06:44:04.839Z,92.27
2023-01-01T06:45:04.853Z,92.55
2023-01-01T06:46:04.948Z,92.36
2023-01-01T06:47:04.780Z,92.36
2023-01-01T06:48:04.766Z,92.36
2023-01-01T06:49:04.801Z,92.93
2023-01-01T06:50:04.482Z,92.65
2023-01-01T06:51:04.728Z,92.84
2023-01-01T06:52:04.720Z,92.84
2023-01-01T06:53:04.450Z,92.08
2023-01-01T06:54:04.732Z,92.46
2023-01-01T06:55:04.677Z,91.79
2023-01-01T06:56:04.712Z,91.79
2023-01-01T06:57:04.406Z,92.46
2023-01-01T06:58:04.685Z,91.98
2023-01-01T06:59:04.382Z,91.5
2023-01-01T07:00:04.652Z,92.17
2023-01-01T07:01:10.638Z,92.17
2023-01-01T07:02:04.990Z,92.08
2023-01-01T07:03:05.089Z,91.98
2023-01-01T07:04:04.574Z,91.69
2023-01-01T07:05:04.322Z,92.08
2023-01-01T07:06:04.303Z,91.88
2023-01-01T07:07:04.575Z,92.17
2023-01-01T07:08:04.291Z,92.27
2023-01-01T07:09:04.532Z,92.17
2023-01-01T07:10:04.574Z,92.27
2023-01-01T07:11:04.506Z,92.36
2023-01-01T07:12:04.499Z,92.17
2023-01-01T07:13:04.223Z,92.36
2023-01-01T07:14:04.470Z,92.46
2023-01-01T07:15:04.484Z,91.79
2023-01-01T07:16:13.254Z,92.17
2023-01-01T07:17:04.504Z,91.98
2023-01-01T07:18:04.159Z,92.08
2023-01-01T07:19:04.418Z,91.79
2023-01-01T07:20:04.139Z,91.98
2023-01-01T07:21:04.397Z,91.98
2023-01-01T07:22:04.369Z,91.98
2023-01-01T07:23:04.354Z,91.41
2023-01-01T07:24:04.125Z,91.13
2023-01-01T07:25:04.336Z,91.41
2023-01-01T07:26:04.100Z,91.03
2023-01-01T07:27:04.301Z,90.93
2023-01-01T07:28:04.056Z,90.55
2023-01-01T07:29:10.407Z,90.74
2023-01-01T07:30:04.281Z,90.26
2023-01-01T07:31:04.326Z,90.55
2023-01-01T07:32:04.003Z,90.17
2023-01-01T07:33:04.291Z,90.26
2023-01-01T07:34:04.236Z,89.89
2023-01-01T07:35:04.235Z,90.08
2023-01-01T07:36:04.217Z,89.69
2023-01-01T07:37:04.226Z,89.12
2023-01-01T07:38:04.185Z,89.12
2023-01-01T07:39:03.980Z,88.93
2023-01-01T07:40:04.165Z,88.36
2023-01-01T07:41:04.159Z,88.45
2023-01-01T07:42:11.012Z,88.64
2023-01-01T07:43:04.126Z,87.88
2023-01-01T07:44:04.145Z,88.17
2023-01-01T07:45:04.109Z,87.5
2023-01-01T07:46:04.208Z,87.12
2023-01-01T07:47:04.096Z,87.02
2023-01-01T07:48:04.093Z,86.26
2023-01-01T07:49:04.107Z,86.16
2023-01-01T07:50:04.051Z,85.88
2023-01-01T07:51:04.043Z,86.16
2023-01-01T07:52:04.040Z,85.02
2023-01-01T07:53:03.784Z,85.21
2023-01-01T07:54:09.482Z,85.45
2023-01-01T07:55:03.990Z,85.06
2023-01-01T07:56:03.812Z,84.59
2023-01-01T07:57:03.961Z,84.97
2023-01-01T07:58:03.984Z,84.59
2023-01-01T07:59:03.975Z,84.78
2023-01-01T08:00:03.955Z,84.49
2023-01-01T08:01:03.863Z,84.01
2023-01-01T08:02:04.111Z,84.78
2023-01-01T08:03:03.882Z,84.01
2023-01-01T08:04:03.890Z,84.4
2023-01-01T08:05:03.935Z,84.49
2023-01-01T08:06:03.868Z,84.11
2023-01-01T08:07:03.892Z,83.44
2023-01-01T08:08:03.853Z,83.54
2023-01-01T08:09:03.869Z,83.16
2023-01-01T08:10:03.834Z,83.92
2023-01-01T08:11:06.567Z,83.44
2023-01-01T08:12:03.572Z,83.16
2023-01-01T08:13:03.564Z,82.97
2023-01-01T08:14:03.829Z,83.16
2023-01-01T08:15:03.779Z,82.97
2023-01-01T08:16:03.700Z,82.3
2023-01-01T08:17:03.750Z,81.82
2023-01-01T08:18:03.472Z,81.82
2023-01-01T08:19:03.731Z,81.82
2023-01-01T08:20:03.813Z,82.2
2023-01-01T08:21:03.860Z,82.11
2023-01-01T08:22:03.506Z,81.15
2023-01-01T08:23:09.187Z,80.96
2023-01-01T08:24:03.667Z,81.06
2023-01-01T08:25:03.656Z,81.25
2023-01-01T08:26:03.663Z,81.15
2023-01-01T08:27:03.640Z,81.06
2023-01-01T08:28:03.629Z,80.68
2023-01-01T08:29:03.644Z,80.68
2023-01-01T08:30:03.376Z,80.39
2023-01-01T08:31:03.495Z,80.3
2023-01-01T08:32:03.588Z,79.96
2023-01-01T08:33:03.569Z,80.15
2023-01-01T08:34:03.296Z,80.43
2023-01-01T08:35:03.548Z,79.67
2023-01-01T08:36:03.542Z,79.28
2023-01-01T08:37:03.589Z,79.1
2023-01-01T08:38:03.521Z,79.19
2023-01-01T08:39:03.508Z,78.62
2023-01-01T08:40:03.509Z,78.91
2023-01-01T08:41:03.497Z,79.1
2023-01-01T08:42:07.060Z,79.19
2023-01-01T08:43:03.469Z,78.72
2023-01-01T08:44:03.450Z,78.81
2023-01-01T08:45:03.445Z,78.72
2023-01-01T08:46:03.179Z,78.52
2023-01-01T08:47:03.614Z,78.23
2023-01-01T08:48:03.411Z,78.33
2023-01-01T08:49:03.403Z,77.76
2023-01-01T08:50:03.430Z,77.57
2023-01-01T08:51:03.434Z,77.19
2023-01-01T08:52:03.369Z,77.28
2023-01-01T08:53:03.616Z,77.09
2023-01-01T08:54:03.576Z,77
2023-01-01T08:55:03.621Z,77
2023-01-01T08:56:03.523Z,76.62
2023-01-01T08:57:03.313Z,76.52
2023-01-01T08:58:03.249Z,76.71
2023-01-01T08:59:06.656Z,76.62
2023-01-01T09:00:03.486Z,76.14
2023-01-01T09:01:03.411Z,75.95
2023-01-01T09:02:03.879Z,76.23
2023-01-01T09:03:03.765Z,76.04
2023-01-01T09:04:03.443Z,76.08
2023-01-01T09:05:03.436Z,75.98
2023-01-01T09:06:03.184Z,76.08
2023-01-01T09:07:03.410Z,75.98
2023-01-01T09:08:03.400Z,76.56
2023-01-01T09:09:03.442Z,76.08
2023-01-01T09:10:03.382Z,76.08
2023-01-01T09:11:03.137Z,76.18
2023-01-01T09:12:03.361Z,75.89
2023-01-01T09:13:03.344Z,76.08
2023-01-01T09:14:03.344Z,75.98
2023-01-01T09:15:03.326Z,75.79
2023-01-01T09:16:03.514Z,75.42
2023-01-01T09:17:03.051Z,75.32
2023-01-01T09:18:03.331Z,75.6
2023-01-01T09:19:03.037Z,75.42
2023-01-01T09:20:03.287Z,75.03
2023-01-01T09:21:03.023Z,74.93
2023-01-01T09:22:03.025Z,75.13
2023-01-01T09:23:08.228Z,75.13
2023-01-01T09:24:03.252Z,75.22
2023-01-01T09:25:03.292Z,75.13
2023-01-01T09:26:02.980Z,74.37
2023-01-01T09:27:02.948Z,74.17
2023-01-01T09:28:03.202Z,74.46
2023-01-01T09:29:03.215Z,74.84
2023-01-01T09:30:03.263Z,75.13
2023-01-01T09:31:03.193Z,74.17
2023-01-01T09:32:03.337Z,74.37
2023-01-01T09:33:02.897Z,73.69
2023-01-01T09:34:02.888Z,73.98
2023-01-01T09:35:03.143Z,73.69
2023-01-01T09:36:03.118Z,73.98
2023-01-01T09:37:02.861Z,73.69
2023-01-01T09:38:02.882Z,74.17
2023-01-01T09:39:03.094Z,74.27
2023-01-01T09:40:02.825Z,74.02
2023-01-01T09:41:03.146Z,74.11
2023-01-01T09:42:03.061Z,73.69
2023-01-01T09:43:02.799Z,74.02
2023-01-01T09:44:03.040Z,73.88
2023-01-01T09:45:02.804Z,73.63
2023-01-01T09:46:03.120Z,73.69
2023-01-01T09:47:03.027Z,73.83
2023-01-01T09:48:02.773Z,73.44
2023-01-01T09:49:02.986Z,73.83
2023-01-01T09:50:02.755Z,73.54
2023-01-01T09:51:03.002Z,73.35
2023-01-01T09:52:02.979Z,73.35
2023-01-01T09:53:02.997Z,73.44
2023-01-01T09:54:02.949Z,73.16
2023-01-01T09:55:02.696Z,72.87
2023-01-01T09:56:02.690Z,72.97
2023-01-01T09:57:02.972Z,73.07
2023-01-01T09:58:02.905Z,73.35
2023-01-01T09:59:02.900Z,72.97
2023-01-01T10:00:02.879Z,72.97
2023-01-01T10:01:03.174Z,72.87
2023-01-01T10:02:03.127Z,72.58
2023-01-01T10:03:02.858Z,73.07
2023-01-01T10:04:02.932Z,72.58
2023-01-01T10:05:02.864Z,72.58
2023-01-01T10:06:02.824Z,71.63
2023-01-01T10:07:02.568Z,71.44
2023-01-01T10:08:02.814Z,71.92
2023-01-01T10:09:02.812Z,71.53
2023-01-01T10:10:02.541Z,71.67
2023-01-01T10:11:02.781Z,71.72
2023-01-01T10:12:02.545Z,71.82
2023-01-01T10:13:02.808Z,72.33
2023-01-01T10:14:02.742Z,72.87
2023-01-01T10:15:03.420Z,72.68
2023-01-01T10:16:02.738Z,72.58
2023-01-01T10:17:02.809Z,72.58
2023-01-01T10:18:02.467Z,72.58
2023-01-01T10:19:02.720Z,72.3
2023-01-01T10:20:03.097Z,73.07
2023-01-01T10:21:03.070Z,73.44
2023-01-01T10:22:03.097Z,73.44
2023-01-01T10:23:02.822Z,73.63
2023-01-01T10:24:03.033Z,73.35
2023-01-01T10:25:03.031Z,72.68
2023-01-01T10:26:03.011Z,72.97
2023-01-01T10:27:03.014Z,73.63
2023-01-01T10:28:03.004Z,73.54
2023-01-01T10:29:03.051Z,72.97
2023-01-01T10:30:06.746Z,72.87
2023-01-01T10:31:03.000Z,73.25
2023-01-01T10:32:03.008Z,73.63
2023-01-01T10:33:02.726Z,73.35
2023-01-01T10:34:02.956Z,73.07
2023-01-01T10:35:02.935Z,74.02
2023-01-01T10:36:02.923Z,73.54
2023-01-01T10:37:02.932Z,73.83
2023-01-01T10:38:02.901Z,73.54
2023-01-01T10:39:02.900Z,73.35
2023-01-01T10:40:02.901Z,73.92
2023-01-01T10:41:02.919Z,73.44
2023-01-01T10:42:03.547Z,73.92
2023-01-01T10:43:03.572Z,73.25
2023-01-01T10:44:03.259Z,73.92
2023-01-01T10:45:03.553Z,73.73
2023-01-01T10:46:03.672Z,74.11
2023-01-01T10:47:03.526Z,73.63
2023-01-01T10:48:03.484Z,73.83
2023-01-01T10:49:03.214Z,73.73
2023-01-01T10:50:03.215Z,73.92
2023-01-01T10:51:03.183Z,73.63
2023-01-01T10:52:03.446Z,73.73
2023-01-01T10:53:03.180Z,74.21
2023-01-01T10:54:03.187Z,74.21
2023-01-01T10:55:03.209Z,73.73
2023-01-01T10:56:03.397Z,73.16
2023-01-01T10:57:03.386Z,73.44
2023-01-01T10:58:03.384Z,73.25
2023-01-01T10:59:03.380Z,72.87
2023-01-01T11:00:03.119Z,72.62
2023-01-01T11:01:03.910Z,72.62
2023-01-01T11:02:03.746Z,72.91
2023-01-01T11:03:03.425Z,73.19
2023-01-01T11:04:04.158Z,72.62
2023-01-01T11:05:12.970Z,71.67
2023-01-01T11:06:04.160Z,71.57
2023-01-01T11:07:04.122Z,71.76
2023-01-01T11:08:04.151Z,71.09
2023-01-01T11:09:04.147Z,70.81
2023-01-01T11:10:07.046Z,71.57
2023-01-01T11:11:04.131Z,71.28
2023-01-01T11:12:24.744Z,71.38
2023-01-01T11:13:17.973Z,71.76
2023-01-01T11:14:17.720Z,71.38
2023-01-01T11:15:17.703Z,71.47
2023-01-01T11:16:18.124Z,71.28
2023-01-01T11:17:17.683Z,71.28
2023-01-01T11:18:17.725Z,71.47
2023-01-01T11:19:17.932Z,71.76
2023-01-01T11:20:17.660Z,71.76
2023-01-01T11:21:17.907Z,71.09
2023-01-01T11:22:17.898Z,71.28
2023-01-01T11:23:17.894Z,71.76
2023-01-01T11:24:17.893Z,71.67
2023-01-01T11:25:17.867Z,71.67
2023-01-01T11:26:17.860Z,71.76
2023-01-01T11:27:17.854Z,72.05
2023-01-01T11:28:17.854Z,71.76
2023-01-01T11:29:17.598Z,72.81
2023-01-01T11:30:17.825Z,72.53
2023-01-01T11:31:18.151Z,72.43
2023-01-01T11:32:17.878Z,72.62
2023-01-01T11:33:17.801Z,72.53
2023-01-01T11:34:17.796Z,72.53
2023-01-01T11:35:17.785Z,72.33
2023-01-01T11:36:17.769Z,72.53
2023-01-01T11:37:17.780Z,71.76
2023-01-01T11:38:17.758Z,71.95
2023-01-01T11:39:17.754Z,71.86
2023-01-01T11:40:17.739Z,72.81
2023-01-01T11:41:17.469Z,72.24
2023-01-01T11:42:17.458Z,72.24
2023-01-01T11:43:17.708Z,71.95
2023-01-01T11:44:17.440Z,72.05
2023-01-01T11:45:17.709Z,71.86
2023-01-01T11:46:17.841Z,72.53
2023-01-01T11:47:17.683Z,72.53
2023-01-01T11:48:17.720Z,72.68
2023-01-01T11:49:17.661Z,72.33
2023-01-01T11:50:17.652Z,72.62
2023-01-01T11:51:17.636Z,73.07
2023-01-01T11:52:17.628Z,72.39
2023-01-01T11:53:17.618Z,73.1
2023-01-01T11:54:17.603Z,73.63
2023-01-01T11:55:17.603Z,72.87
2023-01-01T11:56:17.589Z,73.25
2023-01-01T11:57:17.608Z,73.16
2023-01-01T11:58:22.071Z,73.35
2023-01-01T11:59:17.307Z,73.19
2023-01-01T12:00:17.570Z,73.07
2023-01-01T12:01:17.647Z,72.24
2023-01-01T12:02:17.626Z,72.58
2023-01-01T12:03:17.659Z,72.58
2023-01-01T12:04:17.606Z,72.33
2023-01-01T12:05:17.264Z,72.68
2023-01-01T12:06:17.248Z,72.33
2023-01-01T12:07:17.240Z,72.53
2023-01-01T12:08:17.480Z,72.72
2023-01-01T12:09:21.262Z,72.62
2023-01-01T12:10:17.479Z,72.62
2023-01-01T12:11:17.457Z,71.86
2023-01-01T12:12:17.215Z,71.95
2023-01-01T12:13:17.176Z,71
2023-01-01T12:14:17.452Z,70.42
2023-01-01T12:15:17.424Z,70.81
2023-01-01T12:16:17.338Z,70.61
2023-01-01T12:17:17.151Z,71
2023-01-01T12:18:17.388Z,70.9
2023-01-01T12:19:17.383Z,70.61
2023-01-01T12:20:17.632Z,69.41
2023-01-01T12:21:17.380Z,69.7
2023-01-01T12:22:17.104Z,69.7
2023-01-01T12:23:17.335Z,69.6
2023-01-01T12:24:17.331Z,70.07
2023-01-01T12:25:17.084Z,70.81
2023-01-01T12:26:17.340Z,70.9
2023-01-01T12:27:17.051Z,70.9
2023-01-01T12:28:17.296Z,70.81
2023-01-01T12:29:17.283Z,70.61
2023-01-01T12:30:17.358Z,70.61
2023-01-01T12:31:17.096Z,70.52
2023-01-01T12:32:17.005Z,70.71
2023-01-01T12:33:17.264Z,71.09
2023-01-01T12:34:17.251Z,70.04
2023-01-01T12:35:16.993Z,70.33
2023-01-01T12:36:17.279Z,70.14
2023-01-01T12:37:17.217Z,69.76
2023-01-01T12:38:17.221Z,70.04
2023-01-01T12:39:17.198Z,70.52
2023-01-01T12:40:24.943Z,69.85
2023-01-01T12:41:16.930Z,70.42
2023-01-01T12:42:16.923Z,70.04
2023-01-01T12:43:16.929Z,70.42
2023-01-01T12:44:17.169Z,70.33
2023-01-01T12:45:16.934Z,69.56
2023-01-01T12:46:16.949Z,69.76
2023-01-01T12:47:16.875Z,70.33
2023-01-01T12:48:17.125Z,70.33
2023-01-01T12:49:17.127Z,70.81
2023-01-01T12:50:17.135Z,69.56
2023-01-01T12:51:17.093Z,69.47
2023-01-01T12:52:17.238Z,69.47
2023-01-01T12:53:17.089Z,69.66
2023-01-01T12:54:17.069Z,69.47
2023-01-01T12:55:17.046Z,69.66
2023-01-01T12:56:24.919Z,70.04
2023-01-01T12:57:16.785Z,70.42
2023-01-01T12:58:17.317Z,69.85
2023-01-01T12:59:17.305Z,68.9
2023-01-01T13:00:17.294Z,68.9
2023-01-01T13:01:17.665Z,69.85
2023-01-01T13:02:17.590Z,69.27
2023-01-01T13:03:17.575Z,69.66
2023-01-01T13:04:17.265Z,69.47
2023-01-01T13:05:16.995Z,69.37
2023-01-01T13:06:23.469Z,69.09
2023-01-01T13:07:16.980Z,69.47
2023-01-01T13:08:17.382Z,69.18
2023-01-01T13:09:17.238Z,69.37
2023-01-01T13:10:17.258Z,69.76
2023-01-01T13:11:17.199Z,68.99
2023-01-01T13:12:17.210Z,69.37
2023-01-01T13:13:17.183Z,70.23